Time;durP1;ratioP1;P1;durP2;ratioP2;P2;SDS_P1;SDS_P2;PMS_P1;PMS_P2;Temp;Humidity;BMP_temperature;BMP_pressure;BME280_temperature;BME280_humidity;BME280_pressure;Samples;Min_cycle;Max_cycle;Signal;HPM_P1;HPM_P2
2021/08/26 00:00:57;;;;;;;3.80;3.50;;;;;;;;;;5112275;28;20583;-83
2021/08/26 00:06:05;;;;;;;7.73;6.13;;;;;;;;;;5099049;28;20791;-84
2021/08/26 00:08:33;;;;;;;6.03;5.53;;;;;;;;;;5114237;28;20470;-81
2021/08/26 00:11:00;;;;;;;7.43;6.73;;;;;;;;;;5111744;28;20459;-79
2021/08/26 00:13:29;;;;;;;8.20;7.30;;;;;;;;;;5107542;28;20419;-78
2021/08/26 00:15:59;;;;;;;8.20;7.40;;;;;;;;;;5110331;28;20785;-81
2021/08/26 00:18:26;;;;;;;8.97;8.17;;;;;;;;;;5111717;28;20543;-80
2021/08/26 00:20:53;;;;;;;9.63;8.63;;;;;;;;;;5111845;28;20465;-81
2021/08/26 00:23:21;;;;;;;13.20;10.47;;;;;;;;;;5112046;28;20526;-80
2021/08/26 00:25:48;;;;;;;11.07;9.37;;;;;;;;;;5112616;28;20458;-79
2021/08/26 00:28:15;;;;;;;11.67;10.50;;;;;;;;;;5096152;28;20442;-82
2021/08/26 00:30:44;;;;;;;11.30;10.10;;;;;;;;;;5114247;28;20471;-86
2021/08/26 00:33:12;;;;;;;12.00;10.73;;;;;;;;;;5111913;28;20450;-80
2021/08/26 00:35:39;;;;;;;10.97;9.83;;;;;;;;;;5111588;28;20514;-83
2021/08/26 00:38:06;;;;;;;11.77;9.40;;;;;;;;;;5112891;28;20442;-80
2021/08/26 00:40:33;;;;;;;10.60;9.50;;;;;;;;;;5111146;28;20486;-85
2021/08/26 00:43:01;;;;;;;10.50;8.17;;;;;;;;;;5111508;28;20420;-82
2021/08/26 00:45:28;;;;;;;11.00;8.93;;;;;;;;;;5093923;28;20517;-80
2021/08/26 00:47:58;;;;;;;11.07;9.97;;;;;;;;;;5113702;28;20487;-85
2021/08/26 00:50:25;;;;;;;10.60;9.60;;;;;;;;;;5113770;28;20550;-86
2021/08/26 00:52:54;;;;;;;10.33;8.87;;;;;;;;;;5096158;28;20877;-87
2021/08/26 00:55:21;;;;;;;12.47;9.80;;;;;;;;;;5110528;28;20431;-82
2021/08/26 00:57:48;;;;;;;10.13;9.13;;;;;;;;;;5107616;28;20471;-86
2021/08/26 01:00:16;;;;;;;12.40;9.70;;;;;;;;;;5110374;28;20493;-79
2021/08/26 01:02:46;;;;;;;8.60;7.70;;;;;;;;;;5111794;28;20943;-85
2021/08/26 01:05:17;;;;;;;8.83;7.93;;;;;;;;;;5095209;28;20442;-78
2021/08/26 01:07:47;;;;;;;9.20;8.30;;;;;;;;;;5111459;28;20570;-79
2021/08/26 01:10:16;;;;;;;10.80;8.37;;;;;;;;;;5114821;28;20482;-84
2021/08/26 01:12:45;;;;;;;11.37;8.83;;;;;;;;;;5114041;28;20820;-86
2021/08/26 01:15:13;;;;;;;7.37;6.60;;;;;;;;;;5113622;28;20438;-80
2021/08/26 01:17:40;;;;;;;7.60;6.80;;;;;;;;;;5109874;28;20781;-82
2021/08/26 01:20:07;;;;;;;7.50;6.70;;;;;;;;;;5106935;28;20934;-81
2021/08/26 01:22:36;;;;;;;8.67;7.00;;;;;;;;;;5110422;28;20438;-81
2021/08/26 01:25:05;;;;;;;7.87;7.07;;;;;;;;;;5093119;28;20961;-83
2021/08/26 01:27:35;;;;;;;9.10;6.93;;;;;;;;;;5093338;28;20438;-83
2021/08/26 01:30:03;;;;;;;7.97;7.27;;;;;;;;;;5093211;28;20466;-81
2021/08/26 01:32:30;;;;;;;10.90;7.33;;;;;;;;;;5113376;28;20438;-82
2021/08/26 01:34:58;;;;;;;15.93;8.37;;;;;;;;;;5113099;28;20447;-84
2021/08/26 01:37:25;;;;;;;9.47;7.60;;;;;;;;;;5115105;28;20434;-82
2021/08/26 01:39:53;;;;;;;9.17;6.60;;;;;;;;;;5094677;28;20982;-79
2021/08/26 01:42:21;;;;;;;7.97;7.00;;;;;;;;;;5111229;28;20430;-80
2021/08/26 01:44:49;;;;;;;6.90;6.20;;;;;;;;;;5114142;28;20446;-82
2021/08/26 01:47:18;;;;;;;6.67;6.00;;;;;;;;;;5114443;28;20431;-84
2021/08/26 01:49:46;;;;;;;11.07;7.87;;;;;;;;;;5114853;28;20426;-79
2021/08/26 01:52:13;;;;;;;9.53;6.87;;;;;;;;;;5097135;28;20465;-82
2021/08/26 01:54:40;;;;;;;6.70;5.80;;;;;;;;;;5116914;28;20439;-79
2021/08/26 01:57:07;;;;;;;7.27;6.57;;;;;;;;;;5116806;28;20912;-83
2021/08/26 01:59:35;;;;;;;8.23;6.17;;;;;;;;;;5116724;28;20443;-81
2021/08/26 02:02:04;;;;;;;8.10;6.33;;;;;;;;;;5112352;28;20455;-81
2021/08/26 02:04:31;;;;;;;6.43;5.83;;;;;;;;;;5111316;28;20423;-81
2021/08/26 02:06:58;;;;;;;6.67;6.07;;;;;;;;;;5113681;28;20442;-82
2021/08/26 02:09:25;;;;;;;8.07;7.00;;;;;;;;;;5113949;28;20478;-81
2021/08/26 02:11:53;;;;;;;8.77;6.57;;;;;;;;;;5114452;28;20485;-83
2021/08/26 02:14:20;;;;;;;8.33;6.43;;;;;;;;;;5114413;28;20934;-85
2021/08/26 02:16:47;;;;;;;6.17;5.57;;;;;;;;;;5116332;28;20445;-88
2021/08/26 02:19:16;;;;;;;6.90;6.20;;;;;;;;;;5116462;28;20431;-82
2021/08/26 02:21:43;;;;;;;6.10;5.50;;;;;;;;;;5116193;28;20817;-80
2021/08/26 02:24:10;;;;;;;7.00;5.00;;;;;;;;;;5111990;28;20446;-80
2021/08/26 02:26:38;;;;;;;7.07;5.90;;;;;;;;;;5110737;28;20442;-78
2021/08/26 02:29:05;;;;;;;5.90;5.10;;;;;;;;;;5113402;28;20434;-80
2021/08/26 02:31:32;;;;;;;5.90;5.33;;;;;;;;;;5113723;28;20980;-81
2021/08/26 02:33:59;;;;;;;6.27;5.67;;;;;;;;;;5114034;28;20785;-83
2021/08/26 02:36:28;;;;;;;8.20;5.57;;;;;;;;;;5114514;28;20429;-80
2021/08/26 02:38:55;;;;;;;6.50;5.90;;;;;;;;;;5116218;28;20447;-82
2021/08/26 02:41:22;;;;;;;6.13;5.13;;;;;;;;;;5115884;28;20496;-82
2021/08/26 02:43:49;;;;;;;6.17;5.07;;;;;;;;;;5115902;28;20441;-77
2021/08/26 02:46:16;;;;;;;6.67;5.80;;;;;;;;;;5111491;28;20434;-83
2021/08/26 02:48:44;;;;;;;5.90;5.30;;;;;;;;;;5109123;28;20427;-83
2021/08/26 02:51:11;;;;;;;7.50;6.00;;;;;;;;;;5112619;28;20967;-80
2021/08/26 02:53:39;;;;;;;6.60;6.00;;;;;;;;;;5113170;28;20465;-84
2021/08/26 02:56:07;;;;;;;7.10;5.77;;;;;;;;;;5113398;28;20935;-80
2021/08/26 02:58:34;;;;;;;7.17;6.00;;;;;;;;;;5113701;28;20501;-80
2021/08/26 03:01:01;;;;;;;7.97;5.37;;;;;;;;;;5115404;28;20489;-82
2021/08/26 03:03:28;;;;;;;6.03;4.60;;;;;;;;;;5115420;28;20709;-80
2021/08/26 03:05:55;;;;;;;6.10;4.23;;;;;;;;;;5115461;28;20442;-78
2021/08/26 03:08:23;;;;;;;6.43;4.23;;;;;;;;;;5110374;28;20479;-78
2021/08/26 03:10:51;;;;;;;4.60;3.80;;;;;;;;;;5109474;28;20465;-82
2021/08/26 03:13:18;;;;;;;6.90;3.83;;;;;;;;;;5112094;28;20446;-81
2021/08/26 03:15:45;;;;;;;5.10;3.60;;;;;;;;;;5112604;28;20443;-81
2021/08/26 03:18:13;;;;;;;5.47;3.97;;;;;;;;;;5113199;28;20536;-78
2021/08/26 03:20:40;;;;;;;9.73;4.20;;;;;;;;;;5113252;28;20504;-85
2021/08/26 03:23:07;;;;;;;6.23;3.93;;;;;;;;;;5114817;28;20483;-79
2021/08/26 03:25:34;;;;;;;6.37;4.03;;;;;;;;;;5115888;28;20441;-79
2021/08/26 03:28:03;;;;;;;5.17;4.03;;;;;;;;;;5115038;28;20463;-83
2021/08/26 03:30:30;;;;;;;12.03;4.67;;;;;;;;;;5109865;28;20460;-79
2021/08/26 03:32:57;;;;;;;6.83;4.87;;;;;;;;;;5109264;28;20430;-82
2021/08/26 03:35:24;;;;;;;6.20;4.00;;;;;;;;;;5092797;28;20796;-76
2021/08/26 03:37:52;;;;;;;7.27;4.63;;;;;;;;;;5111572;28;20807;-80
2021/08/26 03:40:19;;;;;;;7.77;4.30;;;;;;;;;;5112376;28;20463;-83
2021/08/26 03:42:46;;;;;;;5.80;3.93;;;;;;;;;;5114717;28;20438;-80
2021/08/26 03:45:15;;;;;;;7.37;4.33;;;;;;;;;;5111458;28;20942;-80
2021/08/26 03:47:42;;;;;;;7.00;4.37;;;;;;;;;;5111259;28;20784;-83
2021/08/26 03:50:09;;;;;;;6.97;4.27;;;;;;;;;;5116357;28;20458;-78
2021/08/26 03:52:37;;;;;;;5.97;5.00;;;;;;;;;;5094915;28;20435;-81
2021/08/26 03:55:04;;;;;;;9.47;3.90;;;;;;;;;;5114298;28;20473;-82
2021/08/26 03:57:31;;;;;;;8.70;5.23;;;;;;;;;;5112793;28;20465;-84
2021/08/26 03:59:58;;;;;;;6.90;4.37;;;;;;;;;;5114218;28;20439;-82
2021/08/26 04:02:27;;;;;;;5.40;4.60;;;;;;;;;;5114369;28;21425;-79
2021/08/26 04:04:54;;;;;;;5.60;3.77;;;;;;;;;;5114166;28;20437;-82
2021/08/26 04:07:21;;;;;;;5.80;3.93;;;;;;;;;;5109507;28;20480;-79
2021/08/26 04:09:48;;;;;;;6.03;4.13;;;;;;;;;;5108368;28;20454;-79
2021/08/26 04:12:15;;;;;;;8.67;4.20;;;;;;;;;;5111021;28;20442;-83
2021/08/26 04:14:42;;;;;;;6.50;4.53;;;;;;;;;;5111669;28;20446;-83
2021/08/26 04:17:10;;;;;;;6.50;4.13;;;;;;;;;;5112032;28;20441;-87
2021/08/26 04:19:38;;;;;;;8.30;4.23;;;;;;;;;;5112254;28;20473;-81
2021/08/26 04:22:05;;;;;;;5.10;3.50;;;;;;;;;;5113945;28;20481;-82
2021/08/26 04:24:33;;;;;;;6.83;3.63;;;;;;;;;;5114086;28;20441;-79
2021/08/26 04:27:00;;;;;;;7.60;3.27;;;;;;;;;;5114628;28;20444;-79
2021/08/26 04:29:27;;;;;;;3.73;3.17;;;;;;;;;;5108887;28;20446;-78
2021/08/26 04:31:54;;;;;;;5.60;3.40;;;;;;;;;;5108142;28;20823;-80
2021/08/26 04:34:21;;;;;;;5.60;3.70;;;;;;;;;;5110813;28;20467;-81
2021/08/26 04:36:50;;;;;;;7.20;4.17;;;;;;;;;;5111453;28;20445;-80
2021/08/26 04:39:17;;;;;;;6.60;3.30;;;;;;;;;;5111874;28;20456;-82
2021/08/26 04:41:44;;;;;;;4.27;3.43;;;;;;;;;;5111868;28;20486;-85
2021/08/26 04:44:11;;;;;;;8.50;3.47;;;;;;;;;;5113826;28;20486;-80
2021/08/26 04:46:39;;;;;;;6.53;3.73;;;;;;;;;;5113481;28;20928;-81
2021/08/26 04:49:06;;;;;;;6.60;4.00;;;;;;;;;;5096108;28;20444;-78
2021/08/26 04:51:33;;;;;;;9.00;4.17;;;;;;;;;;5108630;28;20541;-80
2021/08/26 04:54:02;;;;;;;4.87;3.23;;;;;;;;;;5108363;28;20433;-81
2021/08/26 04:56:29;;;;;;;5.73;4.37;;;;;;;;;;5110757;28;20959;-78
2021/08/26 04:58:56;;;;;;;6.97;4.10;;;;;;;;;;5111124;28;20491;-79
2021/08/26 05:01:23;;;;;;;7.43;4.20;;;;;;;;;;5111493;28;20497;-79
2021/08/26 05:03:50;;;;;;;6.50;4.20;;;;;;;;;;5115304;28;20464;-80
2021/08/26 05:06:18;;;;;;;6.57;3.53;;;;;;;;;;5113665;28;20811;-81
2021/08/26 05:08:45;;;;;;;9.50;4.70;;;;;;;;;;5113475;28;20466;-78
2021/08/26 05:11:21;;;;;;;5.17;3.67;;;;;;;;;;5113406;28;20473;-80
2021/08/26 05:13:48;;;;;;;8.57;4.17;;;;;;;;;;5093816;28;20430;-82
2021/08/26 05:16:16;;;;;;;8.83;3.90;;;;;;;;;;5111902;28;20440;-84
2021/08/26 05:18:43;;;;;;;6.83;4.33;;;;;;;;;;5097361;28;20450;-80
2021/08/26 05:21:10;;;;;;;8.43;3.83;;;;;;;;;;5114858;28;20485;-84
2021/08/26 05:23:37;;;;;;;5.07;3.83;;;;;;;;;;5115406;28;21025;-82
2021/08/26 05:26:05;;;;;;;12.10;4.63;;;;;;;;;;5115853;28;20446;-80
2021/08/26 05:28:33;;;;;;;6.63;4.50;;;;;;;;;;5117442;28;20442;-83
2021/08/26 05:31:01;;;;;;;4.63;3.77;;;;;;;;;;5117312;28;20803;-80
2021/08/26 05:33:28;;;;;;;5.90;4.00;;;;;;;;;;5117283;28;20437;-78
2021/08/26 05:35:55;;;;;;;7.23;4.77;;;;;;;;;;5111561;28;21876;-83
2021/08/26 05:38:22;;;;;;;11.80;4.80;;;;;;;;;;5111622;28;20437;-82
2021/08/26 05:40:49;;;;;;;7.30;5.30;;;;;;;;;;5114482;28;20463;-81
2021/08/26 05:43:17;;;;;;;6.50;5.13;;;;;;;;;;5114679;28;20939;-84
2021/08/26 05:45:46;;;;;;;6.40;4.33;;;;;;;;;;5114947;28;20780;-83
2021/08/26 05:48:13;;;;;;;10.40;5.53;;;;;;;;;;5115624;28;20541;-80
2021/08/26 05:50:40;;;;;;;10.83;6.10;;;;;;;;;;5098746;28;20458;-85
2021/08/26 05:53:07;;;;;;;8.57;5.17;;;;;;;;;;5116696;28;20514;-82
2021/08/26 05:55:35;;;;;;;7.33;4.60;;;;;;;;;;5116888;28;20435;-80
2021/08/26 05:58:02;;;;;;;8.47;4.50;;;;;;;;;;5110895;28;20430;-84
2021/08/26 06:00:29;;;;;;;5.90;4.77;;;;;;;;;;5110379;28;20457;-83
2021/08/26 06:02:57;;;;;;;6.67;4.83;;;;;;;;;;5113396;28;20477;-84
2021/08/26 06:05:24;;;;;;;10.33;5.00;;;;;;;;;;5113306;28;20438;-82
2021/08/26 06:07:52;;;;;;;7.00;4.57;;;;;;;;;;5113113;28;20446;-81
2021/08/26 06:10:20;;;;;;;10.93;5.53;;;;;;;;;;5113633;28;20996;-84
2021/08/26 06:12:47;;;;;;;11.10;4.50;;;;;;;;;;5110218;28;20431;-80
2021/08/26 06:15:15;;;;;;;6.80;4.83;;;;;;;;;;5111529;28;20443;-78
2021/08/26 06:17:42;;;;;;;8.33;4.87;;;;;;;;;;5113629;28;20474;-83
2021/08/26 06:20:12;;;;;;;6.37;5.10;;;;;;;;;;5114062;28;20470;-80
2021/08/26 06:22:40;;;;;;;7.77;4.43;;;;;;;;;;5095862;28;20486;-80
2021/08/26 06:25:08;;;;;;;6.20;3.67;;;;;;;;;;5096483;28;20462;-77
2021/08/26 06:27:35;;;;;;;10.83;4.20;;;;;;;;;;5097863;28;20439;-79
2021/08/26 06:30:02;;;;;;;9.33;3.50;;;;;;;;;;5115634;28;20463;-78
2021/08/26 06:32:29;;;;;;;6.60;4.03;;;;;;;;;;5115927;28;20438;-79
2021/08/26 06:34:58;;;;;;;5.87;3.90;;;;;;;;;;5109606;28;20438;-78
2021/08/26 06:37:26;;;;;;;6.13;3.67;;;;;;;;;;5110877;28;20422;-79
2021/08/26 06:39:54;;;;;;;6.73;3.93;;;;;;;;;;5113620;28;20449;-78
2021/08/26 06:42:21;;;;;;;8.90;3.97;;;;;;;;;;5114130;28;20833;-78
2021/08/26 06:44:48;;;;;;;6.27;3.07;;;;;;;;;;5113793;28;20434;-79
2021/08/26 06:47:16;;;;;;;6.43;2.80;;;;;;;;;;5114454;28;20462;-79
2021/08/26 06:49:43;;;;;;;8.20;3.63;;;;;;;;;;5115573;28;20969;-78
2021/08/26 06:52:10;;;;;;;7.67;3.47;;;;;;;;;;5112319;28;20500;-79
2021/08/26 06:54:41;;;;;;;10.10;4.00;;;;;;;;;;5115658;28;20438;-78
2021/08/26 06:57:08;;;;;;;7.57;2.90;;;;;;;;;;5100994;28;20474;-78
2021/08/26 06:59:35;;;;;;;6.40;3.20;;;;;;;;;;5107844;28;20807;-78
2021/08/26 07:02:03;;;;;;;6.10;2.80;;;;;;;;;;5113232;28;21217;-78
2021/08/26 07:04:30;;;;;;;5.23;2.43;;;;;;;;;;5113308;28;20449;-82
2021/08/26 07:06:57;;;;;;;8.47;3.30;;;;;;;;;;5113979;28;20438;-78
2021/08/26 07:09:25;;;;;;;7.50;2.60;;;;;;;;;;5113648;28;20478;-79
2021/08/26 07:11:53;;;;;;;8.20;2.63;;;;;;;;;;5097577;28;20469;-79
2021/08/26 07:14:20;;;;;;;7.10;3.27;;;;;;;;;;5113988;28;20798;-80
2021/08/26 07:16:48;;;;;;;9.73;3.50;;;;;;;;;;5113045;28;20450;-77
2021/08/26 07:19:15;;;;;;;6.33;3.10;;;;;;;;;;5108907;28;20806;-78
2021/08/26 07:21:42;;;;;;;4.37;3.10;;;;;;;;;;5110981;28;21034;-85
2021/08/26 07:24:09;;;;;;;10.73;4.47;;;;;;;;;;5112261;28;20431;-80
2021/08/26 07:26:37;;;;;;;7.53;4.13;;;;;;;;;;5113199;28;20448;-80
2021/08/26 07:29:05;;;;;;;13.43;4.43;;;;;;;;;;5113436;28;21081;-78
2021/08/26 07:31:32;;;;;;;8.90;3.33;;;;;;;;;;5112996;28;20485;-80
2021/08/26 07:34:00;;;;;;;5.80;3.10;;;;;;;;;;5114516;28;20537;-80
2021/08/26 07:36:27;;;;;;;7.30;4.03;;;;;;;;;;5114846;28;20434;-78
2021/08/26 07:38:54;;;;;;;9.87;3.50;;;;;;;;;;5114946;28;20854;-76
2021/08/26 07:41:21;;;;;;;11.70;5.63;;;;;;;;;;5108307;28;20450;-77
2021/08/26 07:43:49;;;;;;;6.87;3.53;;;;;;;;;;5092135;28;20934;-78
2021/08/26 07:46:17;;;;;;;9.30;4.27;;;;;;;;;;5112912;28;20437;-78
2021/08/26 07:48:44;;;;;;;9.60;4.10;;;;;;;;;;5112244;28;20538;-78
2021/08/26 07:51:11;;;;;;;9.57;3.80;;;;;;;;;;5112870;28;20446;-77
2021/08/26 07:53:39;;;;;;;12.27;4.87;;;;;;;;;;5113533;28;20448;-78
2021/08/26 07:56:06;;;;;;;10.83;4.03;;;;;;;;;;5114579;28;20423;-81
2021/08/26 07:58:33;;;;;;;11.00;4.30;;;;;;;;;;5114764;28;20447;-78
2021/08/26 08:01:01;;;;;;;10.23;4.10;;;;;;;;;;5114673;28;20446;-77
2021/08/26 08:03:32;;;;;;;7.60;3.70;;;;;;;;;;5109135;28;20996;-78
2021/08/26 08:05:59;;;;;;;7.33;4.23;;;;;;;;;;5108737;28;20980;-79
2021/08/26 08:08:26;;;;;;;11.93;4.13;;;;;;;;;;5111944;28;20499;-78
2021/08/26 08:10:54;;;;;;;9.80;4.47;;;;;;;;;;5111900;28;20478;-77
2021/08/26 08:13:21;;;;;;;15.13;5.60;;;;;;;;;;5112270;28;20447;-78
2021/08/26 08:15:49;;;;;;;8.83;4.57;;;;;;;;;;5113220;28;20455;-78
2021/08/26 08:18:16;;;;;;;9.23;5.13;;;;;;;;;;5114401;28;20441;-78
2021/08/26 08:20:46;;;;;;;9.97;5.03;;;;;;;;;;5113988;28;20462;-78
2021/08/26 08:23:13;;;;;;;10.10;4.63;;;;;;;;;;5113781;28;20476;-79
2021/08/26 08:25:41;;;;;;;10.83;5.10;;;;;;;;;;5109633;28;20431;-78
2021/08/26 08:28:13;;;;;;;12.80;6.53;;;;;;;;;;5108835;28;20438;-78
2021/08/26 08:30:40;;;;;;;11.37;6.00;;;;;;;;;;5111154;28;20460;-79
2021/08/26 08:33:07;;;;;;;15.03;6.40;;;;;;;;;;5111818;28;20451;-78
2021/08/26 08:35:34;;;;;;;11.37;6.33;;;;;;;;;;5112166;28;20787;-79
2021/08/26 08:38:03;;;;;;;9.90;5.73;;;;;;;;;;5112089;28;20769;-78
2021/08/26 08:40:30;;;;;;;8.10;5.60;;;;;;;;;;5096212;28;20468;-77
2021/08/26 08:42:59;;;;;;;10.53;4.70;;;;;;;;;;5114008;28;20494;-77
2021/08/26 08:45:26;;;;;;;11.30;4.87;;;;;;;;;;5114034;28;20444;-78
2021/08/26 08:47:54;;;;;;;9.20;3.70;;;;;;;;;;5108630;28;20447;-77
2021/08/26 08:50:23;;;;;;;12.40;5.10;;;;;;;;;;5106773;28;20422;-77
2021/08/26 08:52:50;;;;;;;6.50;4.40;;;;;;;;;;5110586;28;20505;-81
2021/08/26 08:55:19;;;;;;;8.30;4.70;;;;;;;;;;5093704;28;20439;-78
2021/08/26 08:57:47;;;;;;;12.37;4.07;;;;;;;;;;5111792;28;20414;-80
2021/08/26 09:00:15;;;;;;;9.83;3.93;;;;;;;;;;5112164;28;20840;-78
2021/08/26 09:02:42;;;;;;;4.90;3.10;;;;;;;;;;5113753;28;20564;-80
2021/08/26 09:05:10;;;;;;;9.60;3.10;;;;;;;;;;5111875;28;20457;-77
2021/08/26 09:07:37;;;;;;;6.73;3.10;;;;;;;;;;5106087;28;20419;-79
2021/08/26 09:10:06;;;;;;;12.13;3.20;;;;;;;;;;5104343;28;20478;-80
2021/08/26 09:12:49;;;;;;;5.03;2.43;;;;;;;;;;5089895;28;20423;-80
2021/08/26 09:15:19;;;;;;;9.07;3.57;;;;;;;;;;5092147;28;20411;-78
2021/08/26 09:17:46;;;;;;;6.93;3.10;;;;;;;;;;5107397;28;20478;-80
2021/08/26 09:20:15;;;;;;;8.20;3.23;;;;;;;;;;5108597;28;20525;-78
2021/08/26 09:22:42;;;;;;;7.30;3.13;;;;;;;;;;5109608;28;20583;-80
2021/08/26 09:25:12;;;;;;;10.40;3.70;;;;;;;;;;5109831;28;20974;-79
2021/08/26 09:27:40;;;;;;;6.53;3.30;;;;;;;;;;5109040;28;20448;-78
2021/08/26 09:30:09;;;;;;;8.90;3.13;;;;;;;;;;5103956;28;20437;-81
2021/08/26 09:32:39;;;;;;;9.07;3.60;;;;;;;;;;5106705;28;21042;-79
2021/08/26 09:35:15;;;;;;;7.00;3.60;;;;;;;;;;5093352;28;20421;-78
2021/08/26 09:37:43;;;;;;;5.43;2.70;;;;;;;;;;5110685;28;20770;-79
2021/08/26 09:40:11;;;;;;;5.60;3.33;;;;;;;;;;5093349;28;20435;-80
2021/08/26 09:42:38;;;;;;;7.33;3.60;;;;;;;;;;5112233;28;20482;-80
2021/08/26 09:45:20;;;;;;;9.70;3.53;;;;;;;;;;5113656;28;20443;-80
2021/08/26 09:47:59;;;;;;;11.63;3.73;;;;;;;;;;5097905;28;20507;-78
2021/08/26 09:50:41;;;;;;;10.50;3.40;;;;;;;;;;5113442;28;20439;-78
2021/08/26 09:53:09;;;;;;;6.40;3.10;;;;;;;;;;5091201;28;20415;-80
2021/08/26 09:55:51;;;;;;;6.17;3.10;;;;;;;;;;5109058;28;20931;-78
2021/08/26 09:58:19;;;;;;;6.60;3.37;;;;;;;;;;5111988;28;20529;-78
2021/08/26 10:00:46;;;;;;;9.03;3.00;;;;;;;;;;5096909;28;20439;-81
2021/08/26 10:03:15;;;;;;;7.17;3.37;;;;;;;;;;5114622;28;20991;-78
2021/08/26 10:05:44;;;;;;;10.20;3.10;;;;;;;;;;5116103;28;20455;-80
2021/08/26 10:08:11;;;;;;;7.70;3.10;;;;;;;;;;5116806;28;20443;-78
2021/08/26 10:10:40;;;;;;;9.63;3.23;;;;;;;;;;5098941;28;20441;-79
2021/08/26 10:13:07;;;;;;;5.20;2.70;;;;;;;;;;5089688;28;20415;-81
2021/08/26 10:15:35;;;;;;;5.10;2.53;;;;;;;;;;5107435;28;20790;-82
2021/08/26 10:18:02;;;;;;;3.17;2.37;;;;;;;;;;5110553;28;20444;-79
2021/08/26 10:20:31;;;;;;;7.00;2.27;;;;;;;;;;5093014;28;20451;-80
2021/08/26 10:22:58;;;;;;;5.07;2.30;;;;;;;;;;5111045;28;20487;-81
2021/08/26 10:25:25;;;;;;;3.40;2.60;;;;;;;;;;5110956;28;20455;-79
2021/08/26 10:27:53;;;;;;;6.87;3.17;;;;;;;;;;5112769;28;20423;-80
2021/08/26 10:30:28;;;;;;;6.70;2.60;;;;;;;;;;5112410;28;20449;-80
2021/08/26 10:33:05;;;;;;;9.17;3.20;;;;;;;;;;5112965;28;20493;-81
2021/08/26 10:35:34;;;;;;;5.47;2.97;;;;;;;;;;5106981;28;20414;-79
2021/08/26 10:38:01;;;;;;;2.53;2.00;;;;;;;;;;5107545;28;20494;-80
2021/08/26 10:40:30;;;;;;;3.50;2.23;;;;;;;;;;5110491;28;20425;-79
2021/08/26 10:42:57;;;;;;;3.80;2.40;;;;;;;;;;5110240;28;20547;-81
2021/08/26 10:45:26;;;;;;;5.13;2.33;;;;;;;;;;5092938;28;20445;-79
2021/08/26 10:48:08;;;;;;;5.43;2.30;;;;;;;;;;5110798;28;20507;-80
2021/08/26 10:50:39;;;;;;;4.80;3.23;;;;;;;;;;5096589;28;20451;-80
2021/08/26 10:53:07;;;;;;;8.20;3.33;;;;;;;;;;5112381;28;20448;-79
2021/08/26 10:55:39;;;;;;;4.13;2.33;;;;;;;;;;5112840;28;20848;-82
2021/08/26 10:58:20;;;;;;;5.70;3.00;;;;;;;;;;5106104;28;20404;-79
2021/08/26 11:00:51;;;;;;;4.67;2.60;;;;;;;;;;5108215;28;20442;-80
2021/08/26 11:03:46;;;;;;;4.57;2.40;;;;;;;;;;5110943;28;21021;-80
2021/08/26 11:06:28;;;;;;;5.00;2.40;;;;;;;;;;5095520;28;20946;-79
2021/08/26 11:08:59;;;;;;;5.87;2.77;;;;;;;;;;5094140;28;20468;-81
2021/08/26 11:11:45;;;;;;;5.43;2.70;;;;;;;;;;5090698;28;20437;-80
2021/08/26 11:14:25;;;;;;;5.87;3.13;;;;;;;;;;5076442;28;20519;-80
2021/08/26 11:16:54;;;;;;;4.47;2.43;;;;;;;;;;5091418;28;20415;-80
2021/08/26 11:19:29;;;;;;;4.47;2.63;;;;;;;;;;5084444;28;20412;-78
2021/08/26 11:21:59;;;;;;;4.50;2.60;;;;;;;;;;5091632;28;20886;-82
2021/08/26 11:24:41;;;;;;;5.30;2.60;;;;;;;;;;5112399;28;20534;-83
2021/08/26 11:27:18;;;;;;;6.53;3.10;;;;;;;;;;5097238;28;20743;-82
2021/08/26 11:29:45;;;;;;;3.67;2.77;;;;;;;;;;5113237;28;20441;-82
2021/08/26 11:32:14;;;;;;;6.50;2.53;;;;;;;;;;5095773;28;20484;-82
2021/08/26 11:34:42;;;;;;;6.10;2.33;;;;;;;;;;5097254;28;20423;-82
2021/08/26 11:37:13;;;;;;;5.67;2.60;;;;;;;;;;5115032;28;20793;-82
2021/08/26 11:39:41;;;;;;;6.07;2.70;;;;;;;;;;5115166;28;20441;-82
2021/08/26 11:42:10;;;;;;;7.57;3.07;;;;;;;;;;5108328;28;20437;-82
2021/08/26 11:44:40;;;;;;;6.87;3.43;;;;;;;;;;5108159;28;20477;-82
2021/08/26 11:47:08;;;;;;;6.83;2.90;;;;;;;;;;5112761;28;20444;-83
2021/08/26 11:49:36;;;;;;;6.33;2.80;;;;;;;;;;5112434;28;20438;-82
2021/08/26 11:55:24;;;;;;;5.23;2.87;;;;;;;;;;5070005;28;20464;-82
2021/08/26 11:57:56;;;;;;;4.40;2.60;;;;;;;;;;5071423;28;20436;-82
2021/08/26 12:03:35;;;;;;;5.53;2.77;;;;;;;;;;5077803;28;20552;-83
2021/08/26 12:12:33;;;;;;;4.10;3.00;;;;;;;;;;5060862;28;20444;-82
2021/08/26 12:15:31;;;;;;;4.07;2.50;;;;;;;;;;5088786;28;20608;-80
2021/08/26 12:18:10;;;;;;;;;;;;;;;;;;;;;
2021/08/26 12:20:55;;;;;;;7.77;2.83;;;;;;;;;;5093518;28;20459;-80
2021/08/26 12:26:53;;;;;;;5.00;2.20;;;;;;;;;;5088083;28;20424;-79
2021/08/26 12:32:28;;;;;;;4.33;2.00;;;;;;;;;;5031794;28;20445;-79
2021/08/26 12:35:10;;;;;;;4.33;2.63;;;;;;;;;;5077427;28;20443;-80
2021/08/26 12:37:48;;;;;;;4.67;2.30;;;;;;;;;;5096811;28;20480;-80
2021/08/26 12:40:17;;;;;;;3.50;1.97;;;;;;;;;;5093774;28;20498;-79
2021/08/26 12:42:56;;;;;;;3.67;2.40;;;;;;;;;;5107135;28;20533;-79
2021/08/26 12:45:24;;;;;;;4.37;2.50;;;;;;;;;;5091240;28;20433;-80
2021/08/26 12:47:51;;;;;;;3.70;2.37;;;;;;;;;;5111365;28;20813;-80
2021/08/26 12:50:26;;;;;;;3.53;2.10;;;;;;;;;;5111771;28;20769;-79
2021/08/26 12:52:54;;;;;;;4.33;2.30;;;;;;;;;;5112314;28;20442;-79
2021/08/26 12:55:23;;;;;;;5.53;2.57;;;;;;;;;;5111778;28;20435;-80
2021/08/26 12:57:50;;;;;;;9.40;2.47;;;;;;;;;;5113925;28;20439;-80
2021/08/26 13:00:32;;;;;;;4.43;2.70;;;;;;;;;;5113233;28;20869;-79
2021/08/26 13:02:59;;;;;;;5.27;2.40;;;;;;;;;;5113158;28;20537;-80
2021/08/26 13:05:27;;;;;;;4.43;2.23;;;;;;;;;;5111710;28;20442;-80
2021/08/26 13:07:59;;;;;;;4.50;2.57;;;;;;;;;;5108969;28;20525;-80
2021/08/26 13:10:27;;;;;;;3.50;1.90;;;;;;;;;;5110822;28;20456;-83
2021/08/26 13:13:09;;;;;;;3.73;2.30;;;;;;;;;;5111326;28;20445;-82
2021/08/26 13:15:36;;;;;;;4.73;2.90;;;;;;;;;;5114417;28;20450;-82
2021/08/26 13:18:03;;;;;;;7.10;3.33;;;;;;;;;;5111855;28;21030;-81
2021/08/26 13:20:31;;;;;;;3.00;2.73;;;;;;;;;;5113493;28;20482;-83
2021/08/26 13:22:59;;;;;;;7.33;3.57;;;;;;;;;;5113750;28;20821;-83
2021/08/26 13:25:29;;;;;;;5.90;2.80;;;;;;;;;;5113499;28;20845;-83
2021/08/26 13:27:56;;;;;;;5.50;2.63;;;;;;;;;;5111851;28;20857;-79
2021/08/26 13:30:23;;;;;;;5.73;2.87;;;;;;;;;;5108687;28;20462;-81
2021/08/26 13:32:51;;;;;;;3.60;2.80;;;;;;;;;;5111978;28;20533;-82
2021/08/26 13:35:18;;;;;;;5.80;2.70;;;;;;;;;;5115261;28;20440;-82
2021/08/26 13:37:46;;;;;;;3.70;2.43;;;;;;;;;;5115170;28;20807;-82
2021/08/26 13:40:14;;;;;;;5.60;2.57;;;;;;;;;;5114797;28;20454;-82
2021/08/26 13:42:43;;;;;;;5.40;2.30;;;;;;;;;;5099404;28;20442;-82
2021/08/26 13:45:11;;;;;;;4.80;2.13;;;;;;;;;;5117426;28;20473;-82
2021/08/26 13:47:39;;;;;;;7.73;2.70;;;;;;;;;;5099537;28;20478;-81
2021/08/26 13:50:07;;;;;;;5.30;2.07;;;;;;;;;;5115883;28;20541;-82
2021/08/26 13:52:34;;;;;;;7.77;2.50;;;;;;;;;;5112566;28;20525;-83
2021/08/26 13:55:01;;;;;;;3.30;2.03;;;;;;;;;;5113451;28;20438;-82
2021/08/26 13:57:28;;;;;;;3.60;2.30;;;;;;;;;;5114863;28;20442;-82
2021/08/26 13:59:57;;;;;;;2.80;1.43;;;;;;;;;;5114667;28;20533;-81
2021/08/26 14:02:24;;;;;;;5.17;2.43;;;;;;;;;;5114800;28;20478;-81
2021/08/26 14:04:52;;;;;;;3.83;2.40;;;;;;;;;;5116102;28;20481;-80
2021/08/26 14:07:19;;;;;;;4.57;2.20;;;;;;;;;;5117108;28;20443;-81
2021/08/26 14:09:48;;;;;;;6.00;2.00;;;;;;;;;;5116650;28;21062;-81
2021/08/26 14:12:15;;;;;;;5.13;2.50;;;;;;;;;;5115485;28;20451;-81
2021/08/26 14:14:42;;;;;;;6.60;2.67;;;;;;;;;;5112284;28;20431;-81
2021/08/26 14:17:10;;;;;;;3.30;2.00;;;;;;;;;;5113126;28;20935;-82
2021/08/26 14:19:38;;;;;;;3.73;2.50;;;;;;;;;;5114141;28;20447;-81
2021/08/26 14:22:05;;;;;;;4.33;2.00;;;;;;;;;;5114481;28;20672;-80
2021/08/26 14:24:32;;;;;;;4.50;2.57;;;;;;;;;;5096683;28;20513;-80
2021/08/26 14:27:00;;;;;;;6.00;2.43;;;;;;;;;;5115765;28;20489;-80
2021/08/26 14:29:27;;;;;;;4.57;2.47;;;;;;;;;;5116501;28;20442;-79
2021/08/26 14:31:55;;;;;;;8.20;2.40;;;;;;;;;;5116529;28;20505;-78
2021/08/26 14:34:23;;;;;;;6.40;2.30;;;;;;;;;;5110086;28;20602;-81
2021/08/26 14:36:51;;;;;;;4.20;2.70;;;;;;;;;;5108309;28;20449;-77
2021/08/26 14:39:18;;;;;;;5.93;3.70;;;;;;;;;;5098400;28;20435;-78
2021/08/26 14:41:45;;;;;;;7.03;3.13;;;;;;;;;;5104167;28;20466;-78
2021/08/26 14:44:12;;;;;;;4.00;2.90;;;;;;;;;;5088889;28;20980;-79
2021/08/26 14:46:39;;;;;;;3.87;2.93;;;;;;;;;;5093017;28;20883;-77
2021/08/26 14:49:06;;;;;;;5.43;2.70;;;;;;;;;;5099710;28;20533;-77
2021/08/26 14:51:36;;;;;;;4.67;2.40;;;;;;;;;;5112224;28;20979;-79
2021/08/26 14:54:03;;;;;;;7.00;3.03;;;;;;;;;;5110109;28;20936;-77
2021/08/26 14:56:31;;;;;;;4.63;2.90;;;;;;;;;;5106823;28;20449;-78
2021/08/26 14:58:58;;;;;;;5.60;2.97;;;;;;;;;;5107767;28;20853;-78
2021/08/26 15:01:25;;;;;;;6.33;3.43;;;;;;;;;;5109897;28;21034;-79
2021/08/26 15:03:53;;;;;;;7.10;4.27;;;;;;;;;;5109954;28;20447;-77
2021/08/26 15:06:20;;;;;;;7.80;3.53;;;;;;;;;;5091534;28;20465;-78
2021/08/26 15:08:49;;;;;;;4.40;3.30;;;;;;;;;;5091761;28;20497;-80
2021/08/26 15:11:16;;;;;;;5.80;2.90;;;;;;;;;;5112117;28;20482;-81